Time;durP1;ratioP1;P1;durP2;ratioP2;P2;SDS_P1;SDS_P2;PMS_P1;PMS_P2;Temp;Humidity;BMP_temperature;BMP_pressure;BME280_temperature;BME280_humidity;BME280_pressure;Samples;Min_cycle;Max_cycle;Signal;HPM_P1;HPM_P2
2022/01/10 00:02:00;;;;;;;;;;;22.30;50.20;;;;;;5084646;28;19928;-69
2022/01/10 00:04:26;;;;;;;;;;;22.30;50.30;;;;;;5084236;28;20007;-72
2022/01/10 00:06:51;;;;;;;;;;;22.30;50.30;;;;;;5083166;28;19916;-71
2022/01/10 00:09:17;;;;;;;;;;;22.30;50.30;;;;;;5081150;28;20569;-72
2022/01/10 00:11:43;;;;;;;;;;;22.20;50.30;;;;;;5081278;28;19912;-67
2022/01/10 00:14:08;;;;;;;;;;;22.20;50.30;;;;;;5084887;28;20001;-69
2022/01/10 00:16:34;;;;;;;;;;;22.20;50.30;;;;;;5084696;28;20102;-71
2022/01/10 00:18:59;;;;;;;;;;;22.20;50.30;;;;;;5084081;28;19912;-69
2022/01/10 00:21:25;;;;;;;;;;;22.20;50.40;;;;;;5086456;28;20276;-69
2022/01/10 00:23:50;;;;;;;;;;;22.20;50.40;;;;;;5086232;28;19912;-72
2022/01/10 00:26:16;;;;;;;;;;;22.10;50.40;;;;;;5085609;28;19919;-68
2022/01/10 00:28:41;;;;;;;;;;;22.10;50.40;;;;;;5087342;28;20287;-72
2022/01/10 00:31:07;;;;;;;;;;;22.00;50.30;;;;;;5086411;28;19989;-72
2022/01/10 00:33:32;;;;;;;;;;;22.10;50.40;;;;;;5083639;28;19957;-68
2022/01/10 00:35:58;;;;;;;;;;;22.10;50.50;;;;;;5084595;28;19916;-66
2022/01/10 00:38:23;;;;;;;;;;;22.00;50.40;;;;;;5085036;28;19955;-68
2022/01/10 00:40:50;;;;;;;;;;;22.00;50.50;;;;;;5082045;28;19916;-66
2022/01/10 00:43:29;;;;;;;;;;;22.00;50.50;;;;;;5085568;28;19926;-66
2022/01/10 00:45:55;;;;;;;;;;;22.00;50.50;;;;;;5083781;28;19916;-69
2022/01/10 00:48:20;;;;;;;;;;;22.00;50.60;;;;;;5077627;28;19916;-70
2022/01/10 00:50:46;;;;;;;;;;;21.90;50.60;;;;;;5085270;28;19916;-67
2022/01/10 00:53:11;;;;;;;;;;;21.90;50.70;;;;;;5082844;28;20294;-70
2022/01/10 00:55:37;;;;;;;;;;;21.90;50.70;;;;;;5086006;28;19919;-72
2022/01/10 00:58:02;;;;;;;;;;;21.90;50.80;;;;;;5084532;28;19916;-68
2022/01/10 01:00:28;;;;;;;;;;;21.90;50.80;;;;;;5079566;28;19928;-70
2022/01/10 01:02:54;;;;;;;;;;;21.90;50.80;;;;;;5086995;28;19916;-71
2022/01/10 01:05:21;;;;;;;;;;;21.80;50.80;;;;;;5085281;28;20037;-69
2022/01/10 01:07:47;;;;;;;;;;;21.80;50.80;;;;;;5084604;28;19912;-69
2022/01/10 01:13:19;;;;;;;;;;;21.80;50.80;;;;;;5088165;28;20061;-69
2022/01/10 01:16:07;;;;;;;;;;;21.70;50.80;;;;;;5088174;28;19920;-70
2022/01/10 01:24:06;;;;;;;;;;;21.70;50.90;;;;;;5089042;28;20438;-69
2022/01/10 01:26:43;;;;;;;;;;;21.70;50.90;;;;;;5087072;28;19999;-69
2022/01/10 01:29:09;;;;;;;;;;;21.70;51.00;;;;;;5087245;28;19951;-69
2022/01/10 01:31:35;;;;;;;;;;;21.60;51.00;;;;;;5086203;28;20295;-69
2022/01/10 01:34:01;;;;;;;;;;;21.60;51.00;;;;;;5086826;28;19919;-72
2022/01/10 01:36:27;;;;;;;;;;;21.60;51.00;;;;;;5089742;28;19923;-72
2022/01/10 01:38:53;;;;;;;;;;;21.60;51.10;;;;;;5088285;28;19973;-68
2022/01/10 01:43:45;;;;;;;;;;;21.50;51.10;;;;;;5090454;28;20003;-71
2022/01/10 01:46:11;;;;;;;;;;;21.50;51.10;;;;;;5085440;28;20311;-69
2022/01/10 01:48:36;;;;;;;;;;;21.50;51.10;;;;;;5088801;28;19916;-69
2022/01/10 01:51:02;;;;;;;;;;;21.50;51.10;;;;;;5089329;28;19919;-73
2022/01/10 01:53:30;;;;;;;;;;;21.50;51.10;;;;;;5087646;28;19920;-70
2022/01/10 01:55:56;;;;;;;;;;;21.50;51.20;;;;;;5088638;28;20325;-70
2022/01/10 01:58:22;;;;;;;;;;;21.50;51.20;;;;;;5087651;28;19916;-69
2022/01/10 02:00:48;;;;;;;;;;;21.40;51.20;;;;;;5086963;28;19957;-69
2022/01/10 02:03:13;;;;;;;;;;;21.50;51.30;;;;;;5087190;28;19976;-69
2022/01/10 02:05:39;;;;;;;;;;;21.50;51.30;;;;;;5086305;28;20002;-69
2022/01/10 02:08:04;;;;;;;;;;;21.40;51.30;;;;;;5086396;28;20022;-70
2022/01/10 02:10:30;;;;;;;;;;;21.40;51.30;;;;;;5086657;28;20325;-69
2022/01/10 02:12:55;;;;;;;;;;;21.40;51.30;;;;;;5089214;28;19955;-69
2022/01/10 02:15:42;;;;;;;;;;;21.40;51.30;;;;;;5087274;28;20308;-67
2022/01/10 02:18:08;;;;;;;;;;;21.30;51.30;;;;;;5087748;28;19924;-67
2022/01/10 02:20:34;;;;;;;;;;;21.30;51.30;;;;;;5085402;28;19922;-69
2022/01/10 02:23:00;;;;;;;;;;;21.30;51.30;;;;;;5084908;28;19912;-67
2022/01/10 02:25:25;;;;;;;;;;;21.30;51.40;;;;;;5087743;28;19938;-73
2022/01/10 02:27:51;;;;;;;;;;;21.30;51.40;;;;;;5087087;28;19915;-70
2022/01/10 02:30:17;;;;;;;;;;;21.30;51.40;;;;;;5085234;28;20365;-73
2022/01/10 02:32:43;;;;;;;;;;;21.30;51.40;;;;;;5088140;28;19912;-70
2022/01/10 02:35:19;;;;;;;;;;;21.30;51.50;;;;;;5086239;28;19912;-67
2022/01/10 02:37:46;;;;;;;;;;;21.30;51.60;;;;;;5085644;28;20767;-70
2022/01/10 02:40:14;;;;;;;;;;;21.20;51.50;;;;;;5082526;28;19947;-72
2022/01/10 02:42:40;;;;;;;;;;;21.20;51.50;;;;;;5088891;28;20088;-72
2022/01/10 02:45:05;;;;;;;;;;;21.20;51.50;;;;;;5086557;28;20031;-69
2022/01/10 02:47:31;;;;;;;;;;;21.20;51.60;;;;;;5087532;28;19999;-72
2022/01/10 02:49:57;;;;;;;;;;;21.20;51.60;;;;;;5085403;28;19962;-70
2022/01/10 02:52:22;;;;;;;;;;;21.20;51.60;;;;;;5084294;28;20003;-70
2022/01/10 02:54:53;;;;;;;;;;;21.20;51.60;;;;;;5085205;28;20034;-73
2022/01/10 02:57:18;;;;;;;;;;;21.20;51.60;;;;;;5088577;28;19943;-73
2022/01/10 02:59:44;;;;;;;;;;;21.10;51.60;;;;;;5086852;28;19912;-68
2022/01/10 03:02:10;;;;;;;;;;;21.10;51.60;;;;;;5083990;28;20078;-72
2022/01/10 03:04:36;;;;;;;;;;;21.10;51.60;;;;;;5085551;28;19912;-72
2022/01/10 03:07:02;;;;;;;;;;;21.10;51.70;;;;;;5085193;28;19923;-69
2022/01/10 03:09:27;;;;;;;;;;;21.10;51.70;;;;;;5086217;28;19916;-69
2022/01/10 03:11:53;;;;;;;;;;;21.10;51.70;;;;;;5078488;28;19988;-69
2022/01/10 03:14:18;;;;;;;;;;;21.10;51.70;;;;;;5088030;28;20248;-69
2022/01/10 03:16:44;;;;;;;;;;;21.10;52.30;;;;;;5084572;28;19920;-67
2022/01/10 03:19:09;;;;;;;;;;;21.10;51.80;;;;;;5085432;28;19912;-73
2022/01/10 03:21:35;;;;;;;;;;;21.10;51.80;;;;;;5083284;28;20332;-68
2022/01/10 03:24:04;;;;;;;;;;;21.00;51.80;;;;;;5082642;28;20007;-72
2022/01/10 03:26:31;;;;;;;;;;;21.00;51.90;;;;;;5083337;28;19912;-73
2022/01/10 03:28:56;;;;;;;;;;;21.00;51.90;;;;;;5077320;28;20427;-69
2022/01/10 03:31:22;;;;;;;;;;;21.00;51.90;;;;;;5097988;28;20053;-72
2022/01/10 03:33:47;;;;;;;;;;;21.00;51.90;;;;;;5087831;28;20434;-69
2022/01/10 03:36:13;;;;;;;;;;;21.00;51.90;;;;;;5087329;28;20409;-67
2022/01/10 03:38:39;;;;;;;;;;;21.00;51.90;;;;;;5085729;28;19923;-69
2022/01/10 03:41:04;;;;;;;;;;;21.00;52.00;;;;;;5080598;28;19922;-73
2022/01/10 03:43:30;;;;;;;;;;;21.00;52.00;;;;;;5085608;28;20393;-69
2022/01/10 03:45:57;;;;;;;;;;;20.90;51.90;;;;;;5082371;28;20011;-70
2022/01/10 03:48:22;;;;;;;;;;;20.90;52.00;;;;;;5079601;28;19931;-69
2022/01/10 03:50:48;;;;;;;;;;;20.90;52.00;;;;;;5085618;28;19920;-73
2022/01/10 03:53:13;;;;;;;;;;;20.90;52.00;;;;;;5086189;28;19946;-68
2022/01/10 03:55:39;;;;;;;;;;;20.90;52.00;;;;;;5084797;28;20354;-69
2022/01/10 03:58:04;;;;;;;;;;;20.90;52.00;;;;;;5082617;28;19925;-69
2022/01/10 04:00:30;;;;;;;;;;;20.90;52.00;;;;;;5085842;28;19943;-72
2022/01/10 04:03:01;;;;;;;;;;;20.90;52.00;;;;;;5087160;28;19920;-68
2022/01/10 04:05:27;;;;;;;;;;;20.90;52.10;;;;;;5083846;28;20314;-71
2022/01/10 04:07:52;;;;;;;;;;;20.90;52.10;;;;;;5083260;28;19912;-70
2022/01/10 04:10:18;;;;;;;;;;;20.90;52.10;;;;;;5085285;28;19917;-73
2022/01/10 04:12:43;;;;;;;;;;;20.80;52.10;;;;;;5086720;28;19969;-69
2022/01/10 04:15:09;;;;;;;;;;;20.80;52.10;;;;;;5084090;28;20394;-70
2022/01/10 04:17:35;;;;;;;;;;;20.90;52.10;;;;;;5086491;28;19924;-69
2022/01/10 04:20:00;;;;;;;;;;;20.80;52.10;;;;;;5083869;28;19947;-70
2022/01/10 04:22:26;;;;;;;;;;;20.80;52.10;;;;;;5084801;28;20338;-69
2022/01/10 04:24:52;;;;;;;;;;;20.80;52.10;;;;;;5081835;28;19928;-67
2022/01/10 04:27:17;;;;;;;;;;;20.80;52.10;;;;;;5081315;28;19943;-71
2022/01/10 04:29:43;;;;;;;;;;;20.80;52.10;;;;;;5085383;28;19969;-69
2022/01/10 04:32:11;;;;;;;;;;;20.80;52.10;;;;;;5084436;28;19908;-73
2022/01/10 04:34:37;;;;;;;;;;;20.80;52.10;;;;;;5084637;28;19965;-73
2022/01/10 04:37:03;;;;;;;;;;;20.80;52.10;;;;;;5086560;28;20295;-70
2022/01/10 04:39:28;;;;;;;;;;;20.80;52.20;;;;;;5078994;28;19924;-69
2022/01/10 04:41:54;;;;;;;;;;;20.80;52.20;;;;;;5082856;28;19992;-72
2022/01/10 04:44:19;;;;;;;;;;;20.80;52.20;;;;;;5088863;28;19912;-67
2022/01/10 04:46:45;;;;;;;;;;;20.70;52.10;;;;;;5087863;28;20018;-69
2022/01/10 04:49:24;;;;;;;;;;;20.80;52.20;;;;;;5087180;28;19931;-67
2022/01/10 04:51:50;;;;;;;;;;;20.70;52.20;;;;;;5086478;28;19959;-72
2022/01/10 04:54:16;;;;;;;;;;;20.70;52.20;;;;;;5082679;28;19924;-70
2022/01/10 04:56:42;;;;;;;;;;;20.70;52.20;;;;;;5086483;28;19928;-67
2022/01/10 04:59:08;;;;;;;;;;;20.70;52.20;;;;;;5089392;28;19912;-70
2022/01/10 05:01:33;;;;;;;;;;;20.70;52.20;;;;;;5082996;28;19938;-70
2022/01/10 05:03:59;;;;;;;;;;;20.70;52.30;;;;;;5088476;28;19916;-72
2022/01/10 05:06:24;;;;;;;;;;;20.70;52.30;;;;;;5087561;28;19963;-72
2022/01/10 05:08:50;;;;;;;;;;;20.70;52.30;;;;;;5085728;28;19970;-72
2022/01/10 05:11:16;;;;;;;;;;;20.70;52.30;;;;;;5081792;28;19923;-72
2022/01/10 05:13:42;;;;;;;;;;;20.70;52.30;;;;;;5089253;28;19956;-70
2022/01/10 05:16:08;;;;;;;;;;;20.70;52.30;;;;;;5086477;28;19916;-69
2022/01/10 05:18:33;;;;;;;;;;;20.70;52.30;;;;;;5086075;28;19957;-69
2022/01/10 05:20:59;;;;;;;;;;;20.70;52.30;;;;;;5085062;28;19920;-72
2022/01/10 05:23:25;;;;;;;;;;;20.60;52.30;;;;;;5085987;28;20010;-68
2022/01/10 05:25:50;;;;;;;;;;;20.70;52.30;;;;;;5083811;28;19912;-69
2022/01/10 05:28:19;;;;;;;;;;;20.60;52.30;;;;;;5089570;28;20077;-71
2022/01/10 05:30:45;;;;;;;;;;;20.70;52.60;;;;;;5084419;28;20187;-69
2022/01/10 05:33:13;;;;;;;;;;;20.60;52.30;;;;;;5085344;28;19916;-69
2022/01/10 05:35:39;;;;;;;;;;;20.60;52.40;;;;;;5085566;28;20339;-70
2022/01/10 05:38:05;;;;;;;;;;;20.60;52.40;;;;;;5087501;28;19967;-70
2022/01/10 05:40:30;;;;;;;;;;;20.60;52.40;;;;;;5084656;28;19984;-69
2022/01/10 05:42:56;;;;;;;;;;;20.60;52.40;;;;;;5088047;28;19961;-69
2022/01/10 05:45:21;;;;;;;;;;;20.60;52.40;;;;;;5086715;28;19912;-70
2022/01/10 05:47:47;;;;;;;;;;;20.60;52.40;;;;;;5085921;28;20081;-67
2022/01/10 05:50:16;;;;;;;;;;;20.60;52.50;;;;;;5087663;28;19923;-69
2022/01/10 05:52:41;;;;;;;;;;;20.60;52.50;;;;;;5103733;28;19931;-69
2022/01/10 05:55:07;;;;;;;;;;;20.60;52.50;;;;;;5086555;28;19912;-71
2022/01/10 05:57:33;;;;;;;;;;;20.60;52.50;;;;;;5084889;28;19996;-73
2022/01/10 05:59:58;;;;;;;;;;;20.60;52.60;;;;;;5084223;28;19920;-69
2022/01/10 06:02:24;;;;;;;;;;;20.60;52.60;;;;;;5082818;28;19919;-70
2022/01/10 06:04:49;;;;;;;;;;;20.60;52.60;;;;;;5086471;28;19912;-70
2022/01/10 06:07:15;;;;;;;;;;;20.60;52.70;;;;;;5080657;28;20003;-68
2022/01/10 06:09:41;;;;;;;;;;;20.60;52.70;;;;;;5080021;28;19913;-69
2022/01/10 06:12:06;;;;;;;;;;;20.60;52.70;;;;;;5076629;28;19939;-73
2022/01/10 06:14:32;;;;;;;;;;;20.50;52.70;;;;;;5082558;28;19947;-72
2022/01/10 06:16:57;;;;;;;;;;;20.50;52.70;;;;;;5084610;28;19931;-69
2022/01/10 06:19:23;;;;;;;;;;;20.50;52.80;;;;;;5083537;28;20004;-70
2022/01/10 06:21:48;;;;;;;;;;;20.50;52.80;;;;;;5085228;28;19912;-73
2022/01/10 06:24:14;;;;;;;;;;;20.50;53.50;;;;;;5085136;28;20283;-70
2022/01/10 06:26:40;;;;;;;;;;;20.70;54.00;;;;;;5084298;28;19965;-68
2022/01/10 06:29:05;;;;;;;;;;;20.80;54.40;;;;;;5086411;28;19919;-71
2022/01/10 06:31:31;;;;;;;;;;;21.00;54.30;;;;;;5081036;28;19916;-72
2022/01/10 06:33:56;;;;;;;;;;;21.10;54.30;;;;;;5081680;28;19919;-71
2022/01/10 06:36:22;;;;;;;;;;;21.30;54.30;;;;;;5087434;28;19919;-73
2022/01/10 06:38:47;;;;;;;;;;;21.30;54.30;;;;;;5082867;28;19993;-72
2022/01/10 06:41:13;;;;;;;;;;;21.60;54.30;;;;;;5083609;28;19924;-70
2022/01/10 06:43:39;;;;;;;;;;;21.70;54.20;;;;;;5087180;28;19920;-73
2022/01/10 06:46:05;;;;;;;;;;;21.80;54.10;;;;;;5086105;28;19912;-68
2022/01/10 06:48:31;;;;;;;;;;;22.00;53.80;;;;;;5087609;28;20065;-74
2022/01/10 06:50:56;;;;;;;;;;;22.20;53.60;;;;;;5082957;28;19916;-73
2022/01/10 06:53:22;;;;;;;;;;;22.30;53.60;;;;;;5081098;28;20359;-73
2022/01/10 06:55:48;;;;;;;;;;;22.30;53.40;;;;;;5077492;28;19916;-73
2022/01/10 06:58:13;;;;;;;;;;;22.20;53.50;;;;;;5083641;28;19919;-70
2022/01/10 07:00:40;;;;;;;;;;;22.20;53.60;;;;;;5085861;28;19916;-69
2022/01/10 07:03:05;;;;;;;;;;;22.20;53.70;;;;;;5086372;28;20211;-70
2022/01/10 07:05:31;;;;;;;;;;;22.10;53.80;;;;;;5085587;28;19920;-72
2022/01/10 07:07:56;;;;;;;;;;;22.10;53.70;;;;;;5084035;28;19987;-68
2022/01/10 07:10:22;;;;;;;;;;;22.10;53.80;;;;;;5073405;28;20680;-72
2022/01/10 07:12:47;;;;;;;;;;;22.20;53.70;;;;;;5087736;28;20021;-71
2022/01/10 07:15:13;;;;;;;;;;;22.20;53.70;;;;;;5085768;28;19922;-72
2022/01/10 07:17:38;;;;;;;;;;;22.20;53.70;;;;;;5082678;28;19916;-70
2022/01/10 07:20:05;;;;;;;;;;;22.20;53.90;;;;;;5082547;28;19913;-71
2022/01/10 07:22:30;;;;;;;;;;;22.20;54.10;;;;;;5088429;28;20023;-73
2022/01/10 07:25:01;;;;;;;;;;;22.30;54.50;;;;;;5085206;28;20011;-74
2022/01/10 07:27:27;;;;;;;;;;;22.30;54.50;;;;;;5081961;28;19916;-67
2022/01/10 07:29:52;;;;;;;;;;;22.40;54.70;;;;;;5080965;28;19993;-68
2022/01/10 07:32:18;;;;;;;;;;;22.40;53.90;;;;;;5081211;28;20252;-66
2022/01/10 07:34:44;;;;;;;;;;;22.40;52.70;;;;;;5081932;28;19917;-67
2022/01/10 07:37:09;;;;;;;;;;;22.40;52.10;;;;;;5086518;28;19923;-68
2022/01/10 07:39:35;;;;;;;;;;;22.40;52.00;;;;;;5078662;28;20031;-69
2022/01/10 07:42:00;;;;;;;;;;;22.40;52.00;;;;;;5082236;28;19992;-71
2022/01/10 07:44:26;;;;;;;;;;;22.40;51.80;;;;;;5081264;28;19946;-72
2022/01/10 07:46:51;;;;;;;;;;;22.40;51.70;;;;;;5084050;28;19920;-71
2022/01/10 07:49:17;;;;;;;;;;;22.40;51.70;;;;;;5083012;28;19919;-68
2022/01/10 07:51:42;;;;;;;;;;;22.40;51.70;;;;;;5084425;28;20003;-69
2022/01/10 07:54:08;;;;;;;;;;;22.40;51.50;;;;;;5084243;28;19955;-71
2022/01/10 07:56:33;;;;;;;;;;;22.40;51.30;;;;;;5082803;28;20438;-69
2022/01/10 07:58:59;;;;;;;;;;;22.40;51.20;;;;;;5082161;28;19923;-68
2022/01/10 08:01:25;;;;;;;;;;;22.40;51.50;;;;;;5082396;28;19912;-67
2022/01/10 08:03:51;;;;;;;;;;;22.40;51.60;;;;;;5084550;28;19952;-66
2022/01/10 08:06:17;;;;;;;;;;;22.40;51.80;;;;;;5086416;28;19919;-71
2022/01/10 08:08:43;;;;;;;;;;;22.40;51.80;;;;;;5086265;28;19923;-71
2022/01/10 08:11:08;;;;;;;;;;;22.40;51.80;;;;;;5084195;28;19912;-69
2022/01/10 08:13:34;;;;;;;;;;;22.40;51.50;;;;;;5086372;28;19912;-75
2022/01/10 08:16:00;;;;;;;;;;;22.40;51.90;;;;;;5087198;28;19965;-70
2022/01/10 08:18:26;;;;;;;;;;;22.40;51.80;;;;;;5090688;28;19927;-70
2022/01/10 08:20:52;;;;;;;;;;;22.40;51.80;;;;;;5086345;28;19920;-70
2022/01/10 08:23:17;;;;;;;;;;;22.40;51.50;;;;;;5089444;28;20070;-72
2022/01/10 08:25:43;;;;;;;;;;;22.40;51.50;;;;;;5089783;28;19916;-68
2022/01/10 08:28:08;;;;;;;;;;;22.40;51.60;;;;;;5090163;28;19916;-70
2022/01/10 08:30:35;;;;;;;;;;;22.40;51.90;;;;;;5087065;28;19969;-71
2022/01/10 08:33:00;;;;;;;;;;;22.40;52.10;;;;;;5086547;28;19912;-72
2022/01/10 08:35:26;;;;;;;;;;;22.40;52.40;;;;;;5087456;28;20033;-70
2022/01/10 08:37:51;;;;;;;;;;;22.50;52.70;;;;;;5090493;28;20355;-68
2022/01/10 08:40:17;;;;;;;;;;;22.50;52.40;;;;;;5103083;28;19947;-74
2022/01/10 08:42:42;;;;;;;;;;;22.50;52.60;;;;;;5090247;28;19922;-69
2022/01/10 08:45:08;;;;;;;;;;;22.50;52.70;;;;;;5089421;28;19920;-70
2022/01/10 08:47:34;;;;;;;;;;;22.50;53.10;;;;;;5087925;28;19916;-68
2022/01/10 08:50:00;;;;;;;;;;;22.60;53.40;;;;;;5087274;28;19912;-69
2022/01/10 08:52:26;;;;;;;;;;;22.60;53.60;;;;;;5087611;28;19920;-69
2022/01/10 08:54:51;;;;;;;;;;;22.60;53.80;;;;;;5082091;28;19955;-70
2022/01/10 08:57:17;;;;;;;;;;;22.60;54.10;;;;;;5090288;28;19931;-69
2022/01/10 08:59:43;;;;;;;;;;;22.60;54.20;;;;;;5087266;28;19989;-71
2022/01/10 09:02:08;;;;;;;;;;;22.70;54.60;;;;;;5088089;28;19916;-68
2022/01/10 09:04:34;;;;;;;;;;;22.70;54.70;;;;;;5087759;28;19922;-75
2022/01/10 09:07:02;;;;;;;;;;;22.70;55.10;;;;;;5087251;28;19926;-70
2022/01/10 09:09:28;;;;;;;;;;;22.70;54.90;;;;;;5084549;28;19919;-74
2022/01/10 09:11:53;;;;;;;;;;;22.80;55.00;;;;;;5081948;28;19916;-69
2022/01/10 09:14:19;;;;;;;;;;;22.70;54.90;;;;;;5084141;28;19934;-72
2022/01/10 09:16:45;;;;;;;;;;;22.80;55.10;;;;;;5088666;28;19924;-70
2022/01/10 09:19:10;;;;;;;;;;;22.80;52.70;;;;;;5084442;28;19920;-72
2022/01/10 09:21:36;;;;;;;;;;;22.80;52.20;;;;;;5086300;28;19965;-71
2022/01/10 09:24:02;;;;;;;;;;;22.80;52.00;;;;;;5086025;28;20401;-70
2022/01/10 09:26:28;;;;;;;;;;;22.80;52.20;;;;;;5087710;28;20007;-71
2022/01/10 09:28:53;;;;;;;;;;;22.80;52.40;;;;;;5086981;28;20122;-71
2022/01/10 09:31:20;;;;;;;;;;;22.90;52.60;;;;;;5086751;28;20011;-73
2022/01/10 09:33:52;;;;;;;;;;;22.80;52.70;;;;;;5087788;28;19916;-67
2022/01/10 09:36:18;;;;;;;;;;;22.90;53.00;;;;;;5086257;28;19951;-71
2022/01/10 09:38:43;;;;;;;;;;;22.90;53.00;;;;;;5087142;28;19920;-71
2022/01/10 09:41:09;;;;;;;;;;;22.90;53.00;;;;;;5083405;28;20355;-71
2022/01/10 09:43:34;;;;;;;;;;;22.90;53.30;;;;;;5083778;28;19919;-69
2022/01/10 09:46:00;;;;;;;;;;;23.00;53.50;;;;;;5082628;28;19938;-70
2022/01/10 09:48:25;;;;;;;;;;;23.00;53.90;;;;;;5083177;28;20322;-68
2022/01/10 09:50:51;;;;;;;;;;;23.00;54.00;;;;;;5081100;28;19923;-73
2022/01/10 09:53:18;;;;;;;;;;;23.00;53.40;;;;;;5080247;28;19923;-71
2022/01/10 09:55:44;;;;;;;;;;;23.00;53.30;;;;;;5084632;28;20018;-72
2022/01/10 09:58:09;;;;;;;;;;;23.00;53.80;;;;;;5089536;28;20027;-70
2022/01/10 10:00:35;;;;;;;;;;;23.10;54.00;;;;;;5086010;28;20275;-75
2022/01/10 10:03:00;;;;;;;;;;;23.10;54.30;;;;;;5085291;28;20064;-71
2022/01/10 10:05:26;;;;;;;;;;;23.10;53.90;;;;;;5086682;28;20020;-69
2022/01/10 10:07:51;;;;;;;;;;;23.10;54.00;;;;;;5082808;28;20320;-72
2022/01/10 10:10:18;;;;;;;;;;;23.10;53.80;;;;;;5085949;28;19986;-69
2022/01/10 10:12:45;;;;;;;;;;;23.20;54.10;;;;;;5090093;28;19920;-72
2022/01/10 10:15:12;;;;;;;;;;;23.20;52.10;;;;;;5089577;28;20002;-72
2022/01/10 10:17:38;;;;;;;;;;;23.10;50.80;;;;;;5087242;28;19989;-68
2022/01/10 10:20:08;;;;;;;;;;;23.10;50.30;;;;;;5079123;28;20334;-70
2022/01/10 10:22:34;;;;;;;;;;;23.10;50.30;;;;;;5087167;28;19920;-74
2022/01/10 10:24:59;;;;;;;;;;;23.10;50.20;;;;;;5081998;28;19916;-71
2022/01/10 10:27:25;;;;;;;;;;;23.00;50.30;;;;;;5086006;28;19977;-71
2022/01/10 10:29:51;;;;;;;;;;;23.00;50.20;;;;;;5082266;28;19965;-73
2022/01/10 10:32:16;;;;;;;;;;;23.00;50.10;;;;;;5085230;28;19912;-72
2022/01/10 10:34:42;;;;;;;;;;;23.00;50.20;;;;;;5082877;28;20329;-73
2022/01/10 10:37:14;;;;;;;;;;;23.00;50.10;;;;;;5086296;28;19924;-73
2022/01/10 10:39:41;;;;;;;;;;;22.90;50.10;;;;;;5081250;28;19916;-74
2022/01/10 10:42:08;;;;;;;;;;;22.90;50.10;;;;;;5082917;28;19924;-69
2022/01/10 10:44:34;;;;;;;;;;;22.90;50.10;;;;;;5081371;28;19923;-72
2022/01/10 10:47:00;;;;;;;;;;;22.90;50.10;;;;;;5082060;28;19920;-72
2022/01/10 10:49:33;;;;;;;;;;;22.90;50.30;;;;;;5078472;28;19925;-73
2022/01/10 10:52:00;;;;;;;;;;;22.90;50.10;;;;;;5078938;28;19920;-72
2022/01/10 10:54:26;;;;;;;;;;;22.90;50.10;;;;;;5077123;28;19963;-69
2022/01/10 10:56:52;;;;;;;;;;;22.90;50.20;;;;;;5086143;28;20277;-72
2022/01/10 10:59:17;;;;;;;;;;;22.90;50.10;;;;;;5083216;28;19927;-73
2022/01/10 11:01:43;;;;;;;;;;;22.90;50.10;;;;;;5082418;28;19949;-72
2022/01/10 11:04:09;;;;;;;;;;;22.90;50.20;;;;;;5080583;28;20097;-72
2022/01/10 11:06:35;;;;;;;;;;;22.90;50.30;;;;;;5086000;28;19912;-70
2022/01/10 11:09:03;;;;;;;;;;;22.90;50.30;;;;;;5081522;28;19931;-70
2022/01/10 11:11:28;;;;;;;;;;;22.90;50.20;;;;;;5084440;28;20041;-69
2022/01/10 11:13:58;;;;;;;;;;;22.90;50.20;;;;;;5087164;28;19992;-72
2022/01/10 11:16:24;;;;;;;;;;;22.90;50.20;;;;;;5083660;28;21521;-73
2022/01/10 11:18:49;;;;;;;;;;;22.90;50.20;;;;;;5078552;28;20398;-69
2022/01/10 11:21:15;;;;;;;;;;;22.80;50.20;;;;;;5086223;28;19951;-73
2022/01/10 11:23:43;;;;;;;;;;;22.80;50.20;;;;;;5085966;28;19927;-74
2022/01/10 11:26:09;;;;;;;;;;;22.90;50.30;;;;;;5084397;28;19955;-68
2022/01/10 11:28:38;;;;;;;;;;;22.80;50.30;;;;;;5085974;28;19951;-71
2022/01/10 11:31:04;;;;;;;;;;;22.80;50.30;;;;;;5084381;28;20016;-73
2022/01/10 11:33:36;;;;;;;;;;;22.80;50.30;;;;;;5075324;28;19923;-73
2022/01/10 11:36:01;;;;;;;;;;;22.80;50.30;;;;;;5084687;28;20896;-72
2022/01/10 11:38:30;;;;;;;;;;;22.80;50.40;;;;;;5079279;28;19920;-71
2022/01/10 11:40:55;;;;;;;;;;;22.80;50.40;;;;;;5075446;28;20017;-70
2022/01/10 11:43:27;;;;;;;;;;;22.80;50.40;;;;;;5079203;28;20079;-73
2022/01/10 11:46:05;;;;;;;;;;;22.80;50.40;;;;;;5078682;28;19927;-68
2022/01/10 11:48:44;;;;;;;;;;;22.90;50.70;;;;;;5080671;28;20017;-71
2022/01/10 11:51:31;;;;;;;;;;;22.90;50.60;;;;;;5081323;28;20010;-71
2022/01/10 11:54:12;;;;;;;;;;;23.10;50.60;;;;;;5079440;28;19943;-72
2022/01/10 11:56:38;;;;;;;;;;;23.10;50.40;;;;;;5082435;28;19959;-68
2022/01/10 11:59:07;;;;;;;;;;;23.20;50.40;;;;;;5078112;28;19916;-73
2022/01/10 12:01:34;;;;;;;;;;;23.30;49.90;;;;;;5082022;28;20006;-72
2022/01/10 12:03:59;;;;;;;;;;;23.40;49.80;;;;;;5083333;28;19932;-73
2022/01/10 12:06:25;;;;;;;;;;;23.40;49.70;;;;;;5079013;28;19916;-73
2022/01/10 12:08:53;;;;;;;;;;;23.50;49.60;;;;;;5075449;28;19956;-73
2022/01/10 12:11:20;;;;;;;;;;;23.60;49.50;;;;;;5082617;28;19912;-73
2022/01/10 12:13:46;;;;;;;;;;;23.70;49.20;;;;;;5084795;28;20049;-71
2022/01/10 12:16:12;;;;;;;;;;;23.80;49.20;;;;;;5084591;28;20004;-73
2022/01/10 12:18:37;;;;;;;;;;;23.90;49.10;;;;;;5086391;28;20010;-74
2022/01/10 12:21:03;;;;;;;;;;;23.90;49.10;;;;;;5080427;28;19912;-72
2022/01/10 12:23:28;;;;;;;;;;;23.90;48.90;;;;;;5077225;28;20387;-71
2022/01/10 12:25:54;;;;;;;;;;;23.90;48.70;;;;;;5078255;28;19923;-73
2022/01/10 12:28:19;;;;;;;;;;;23.80;48.90;;;;;;5082619;28;19920;-73
2022/01/10 12:30:45;;;;;;;;;;;23.80;49.10;;;;;;5084270;28;20375;-73
2022/01/10 12:33:11;;;;;;;;;;;23.80;49.20;;;;;;5081630;28;19919;-71
2022/01/10 12:35:36;;;;;;;;;;;23.90;49.10;;;;;;5079993;28;19927;-72
2022/01/10 12:38:02;;;;;;;;;;;23.90;49.00;;;;;;5079306;28;19916;-70
2022/01/10 12:40:31;;;;;;;;;;;24.00;48.90;;;;;;5084721;28;20010;-70
2022/01/10 12:42:58;;;;;;;;;;;24.00;48.90;;;;;;5085683;28;19916;-71
2022/01/10 12:45:23;;;;;;;;;;;23.90;49.00;;;;;;5087130;28;19965;-69
2022/01/10 12:47:49;;;;;;;;;;;23.90;49.20;;;;;;5080734;28;20652;-68
2022/01/10 12:50:14;;;;;;;;;;;23.90;49.40;;;;;;5081928;28;20069;-72
2022/01/10 12:52:41;;;;;;;;;;;23.90;49.80;;;;;;5087042;28;19952;-74
2022/01/10 12:55:07;;;;;;;;;;;23.90;50.10;;;;;;5082541;28;19916;-71
2022/01/10 12:57:32;;;;;;;;;;;23.90;50.00;;;;;;5085112;28;19923;-73
2022/01/10 12:59:59;;;;;;;;;;;23.90;50.10;;;;;;5075109;28;19923;-72
2022/01/10 13:02:25;;;;;;;;;;;24.00;50.30;;;;;;5079903;28;19986;-73
2022/01/10 13:04:50;;;;;;;;;;;24.00;50.30;;;;;;5082714;28;20398;-71
2022/01/10 13:07:17;;;;;;;;;;;24.00;50.40;;;;;;5078178;28;19969;-72
2022/01/10 13:09:43;;;;;;;;;;;24.00;50.20;;;;;;5080423;28;19923;-73
2022/01/10 13:14:49;;;;;;;;;;;24.00;50.40;;;;;;5082818;28;19927;-68
2022/01/10 13:17:20;;;;;;;;;;;24.10;50.40;;;;;;5088503;28;19969;-69
2022/01/10 13:19:45;;;;;;;;;;;24.00;50.60;;;;;;5079839;28;20120;-69
2022/01/10 13:22:14;;;;;;;;;;;24.10;50.90;;;;;;5079152;28;19920;-69
2022/01/10 13:24:50;;;;;;;;;;;24.10;50.90;;;;;;5084327;28;19951;-72
2022/01/10 13:27:19;;;;;;;;;;;24.10;50.70;;;;;;5084977;28;19916;-73
2022/01/10 13:29:52;;;;;;;;;;;24.10;50.70;;;;;;5086810;28;19916;-70
2022/01/10 13:32:23;;;;;;;;;;;24.10;50.70;;;;;;5085825;28;19916;-69
2022/01/10 13:34:50;;;;;;;;;;;24.10;51.00;;;;;;5086208;28;19916;-74
2022/01/10 13:37:37;;;;;;;;;;;24.20;50.90;;;;;;5085395;28;19924;-71
2022/01/10 13:40:06;;;;;;;;;;;24.20;50.90;;;;;;5079432;28;19924;-72
2022/01/10 13:42:41;;;;;;;;;;;24.20;51.00;;;;;;5076291;28;20459;-72
2022/01/10 13:45:07;;;;;;;;;;;24.30;51.00;;;;;;5080491;28;20329;-70
2022/01/10 13:47:51;;;;;;;;;;;24.30;51.50;;;;;;5082848;28;19980;-73
2022/01/10 13:50:21;;;;;;;;;;;24.30;51.10;;;;;;5081960;28;19937;-72
2022/01/10 13:53:03;;;;;;;;;;;24.20;48.50;;;;;;5079638;28;19957;-72
2022/01/10 13:55:29;;;;;;;;;;;24.20;48.30;;;;;;5080136;28;19916;-69
2022/01/10 13:57:55;;;;;;;;;;;24.20;48.40;;;;;;5081752;28;19920;-70
2022/01/10 14:00:23;;;;;;;;;;;24.10;48.20;;;;;;5085507;28;19915;-72
2022/01/10 14:02:50;;;;;;;;;;;24.10;48.30;;;;;;5086460;28;19929;-71
2022/01/10 14:05:28;;;;;;;;;;;24.10;48.30;;;;;;5083095;28;19924;-70
2022/01/10 14:07:55;;;;;;;;;;;24.10;48.30;;;;;;5082265;28;19974;-72
2022/01/10 14:10:24;;;;;;;;;;;24.00;48.40;;;;;;5084078;28;19959;-71
2022/01/10 14:12:51;;;;;;;;;;;24.00;48.50;;;;;;5089010;28;19916;-72
2022/01/10 14:15:29;;;;;;;;;;;23.90;48.50;;;;;;5084465;28;19920;-69
2022/01/10 14:17:59;;;;;;;;;;;23.90;48.60;;;;;;5086966;28;19973;-70
2022/01/10 14:20:25;;;;;;;;;;;23.90;48.70;;;;;;5086893;28;20008;-72
2022/01/10 14:22:51;;;;;;;;;;;23.90;48.70;;;;;;5086508;28;20012;-72
2022/01/10 14:25:19;;;;;;;;;;;23.90;48.70;;;;;;5081953;28;19916;-72
2022/01/10 14:27:45;;;;;;;;;;;23.90;48.70;;;;;;5087073;28;19974;-71